Airfield :







YOU CAN JOIN US ON...

 
LOGIN :

Register | Disclaimer

   EN    FR    IT 

 









Legend :    VFR   Marginal VFR   IFR   Intensive IFR   Very Intensive IFR
Visi :
Ceiling :
>= 8 km
>= 3000ft
5 to 8 km
1000 to 3000 ft
1500m to 5 km
500 to 1000 ft
800 to 1500m
200 to 500 ft
< 800m
< 200 ft
Symbols :   Thunderstorms  Fog  Heavy snow  Heavy precipitations  Wind > 20 kt






- Airport Elevation : 342 ft


KCON - Concord Municipal

CURRENT METAR :
  • 012251Z AUTO 00000KT 10SM CLR 18/06 A2988 RMK AO2 SLP119 T01830056

EXPIRED METARs :
  • 012151Z AUTO 27005KT 10SM CLR 21/06 A2986 RMK AO2 SLP111 T02110056
  • 012051Z AUTO 23006KT 10SM SCT070 23/07 A2984 RMK AO2 SLP104 T02280067 50001

TAF KCON
Valid from the 01 at 19:00 until the 02 at 18:00 UTC


011901Z 0119/0218 VRB06KT P6SM FEW110
FM020100 00000KT P6SM FEW250
TEMPO 0208/0212 3SM BR
FM021200 VRB03KT P6SM OVC100
FM021500 33004KT P6SM OVC050
KZBW FIR / North America



MET'MAP, your aeronautical weather chart ! - Copyright ORBIFLY December 2007 - Disclaimer

ORBIFLY MET'MAP TEAM :

Programming & Development : Alexandra Zaïnal
Concept & original design : Baudouin d'Aumeries
Assistance for programming : Marc-Olivier Méhu
Technical & hardware support : Manuel Goepfert

Contact : metmap@orbifly.com




SOURCES & CREDITS :

   NOAA